createdAt,value
2019-03-12T00:00:33.391Z,101846.83
2019-03-12T00:01:40.439Z,101856.50
2019-03-12T00:02:47.521Z,101857.30
2019-03-12T00:03:54.204Z,101847.98
2019-03-12T00:05:00.862Z,101854.27
2019-03-12T00:06:08.134Z,101850.52
2019-03-12T00:07:14.913Z,101847.52
2019-03-12T00:08:22.015Z,101841.99
2019-03-12T00:09:29.094Z,101845.28
2019-03-12T00:10:36.462Z,101851.50
2019-03-12T00:11:43.329Z,101858.28
2019-03-12T00:12:50.020Z,101854.48
2019-03-12T00:13:57.070Z,101857.39
2019-03-12T00:15:03.941Z,101851.03
2019-03-12T00:16:10.759Z,101850.18
2019-03-12T00:17:17.478Z,101858.16
2019-03-12T00:18:24.579Z,101865.25
2019-03-12T00:19:32.722Z,101860.19
2019-03-12T00:20:39.429Z,101863.94
2019-03-12T00:21:46.160Z,101864.78
2019-03-12T00:22:52.865Z,101866.47
2019-03-12T00:23:59.708Z,101866.05
2019-03-12T00:25:06.564Z,101865.20
2019-03-12T00:26:13.590Z,101867.35
2019-03-12T00:27:20.299Z,101864.82
2019-03-12T00:28:27.148Z,101861.83
2019-03-12T00:29:34.520Z,101861.41
2019-03-12T00:30:41.579Z,101863.05
2019-03-12T00:31:48.285Z,101856.30
2019-03-12T00:32:55.929Z,101860.48
2019-03-12T00:34:02.985Z,101860.09
2019-03-12T00:35:10.510Z,101857.11
2019-03-12T00:36:18.634Z,101859.25
2019-03-12T00:37:25.839Z,101855.84
2019-03-12T00:38:32.840Z,101857.56
2019-03-12T00:39:39.609Z,101863.89
2019-03-12T00:40:46.642Z,101862.20
2019-03-12T00:41:53.332Z,101861.73
2019-03-12T00:43:00.369Z,101867.52
2019-03-12T00:44:07.141Z,101863.73
2019-03-12T00:45:14.872Z,101863.00
2019-03-12T00:46:22.219Z,101861.36
2019-03-12T00:47:28.896Z,101860.39
2019-03-12T00:48:35.559Z,101859.05
2019-03-12T00:49:42.323Z,101851.38
2019-03-12T00:50:49.633Z,101856.05
2019-03-12T00:51:56.335Z,101859.00
2019-03-12T00:53:03.321Z,101859.84
2019-03-12T00:54:10.330Z,101859.84
2019-03-12T00:55:17.348Z,101853.90
2019-03-12T00:56:24.991Z,101858.58
2019-03-12T00:57:31.733Z,101862.33
2019-03-12T00:58:38.606Z,101857.69
2019-03-12T00:59:45.271Z,101852.97
2019-03-12T01:00:52.294Z,101849.59
2019-03-12T01:01:59.394Z,101849.17
2019-03-12T01:03:06.619Z,101855.03
2019-03-12T01:04:13.283Z,101848.66
2019-03-12T01:05:20.001Z,101847.36
2019-03-12T01:06:27.302Z,101851.99
2019-03-12T01:07:34.651Z,101848.19
2019-03-12T01:08:41.392Z,101847.77
2019-03-12T01:09:48.048Z,101840.19
2019-03-12T01:10:54.874Z,101835.93
2019-03-12T01:12:01.837Z,101840.19
2019-03-12T01:13:17.752Z,101835.59
2019-03-12T01:14:24.485Z,101832.55
2019-03-12T01:15:31.561Z,101829.59
2019-03-12T01:16:38.605Z,101831.70
2019-03-12T01:17:46.136Z,101827.45
2019-03-12T01:18:53.209Z,101817.33
2019-03-12T01:20:01.287Z,101821.62
2019-03-12T01:21:08.018Z,101822.00
2019-03-12T01:22:14.652Z,101817.38
2019-03-12T01:23:21.602Z,101813.58
2019-03-12T01:24:28.610Z,101820.28
2019-03-12T01:25:35.889Z,101815.14
2019-03-12T01:26:43.443Z,101817.28
2019-03-12T01:27:50.145Z,101817.67
2019-03-12T01:28:57.203Z,101812.56
2019-03-12T01:30:04.380Z,101820.99
2019-03-12T01:31:11.031Z,101815.47
2019-03-12T01:32:17.755Z,101814.62
2019-03-12T01:33:24.748Z,101811.67
2019-03-12T01:34:31.756Z,101818.38
2019-03-12T01:35:38.832Z,101817.06
2019-03-12T01:36:45.848Z,101816.65
2019-03-12T01:37:53.093Z,101816.19
2019-03-12T01:39:00.178Z,101808.59
2019-03-12T01:40:08.542Z,101814.12
2019-03-12T01:41:15.494Z,101812.43
2019-03-12T01:42:22.251Z,101808.64
2019-03-12T01:43:29.053Z,101810.75
2019-03-12T01:44:36.146Z,101809.48
2019-03-12T01:45:42.786Z,101805.22
2019-03-12T01:46:49.785Z,101804.38
2019-03-12T01:47:56.877Z,101802.23
2019-03-12T01:49:03.731Z,101801.47
2019-03-12T01:50:12.200Z,101802.36
2019-03-12T01:51:18.856Z,101799.36
2019-03-12T01:52:25.914Z,101797.21
2019-03-12T01:53:32.618Z,101792.20
2019-03-12T01:54:39.272Z,101785.83
2019-03-12T01:55:45.951Z,101786.67
2019-03-12T01:56:53.304Z,101785.41
2019-03-12T01:57:59.991Z,101784.56
2019-03-12T01:59:07.003Z,101782.92
2019-03-12T02:00:15.886Z,101776.94
2019-03-12T02:01:23.011Z,101771.88
2019-03-12T02:02:29.707Z,101771.92
2019-03-12T02:03:36.381Z,101769.39
2019-03-12T02:04:43.035Z,101765.59
2019-03-12T02:05:50.113Z,101764.29
2019-03-12T02:06:57.598Z,101760.06
2019-03-12T02:08:05.063Z,101760.06
2019-03-12T02:09:12.392Z,101760.88
2019-03-12T02:10:19.415Z,101755.81
2019-03-12T02:11:26.100Z,101759.66
2019-03-12T02:12:33.476Z,101755.86
2019-03-12T02:13:40.246Z,101754.12
2019-03-12T02:14:46.920Z,101751.59
2019-03-12T02:15:53.600Z,101744.81
2019-03-12T02:17:00.292Z,101747.80
2019-03-12T02:18:06.959Z,101744.38
2019-03-12T02:19:13.644Z,101745.99
2019-03-12T02:20:20.820Z,101748.56
2019-03-12T02:21:27.544Z,101737.64
2019-03-12T02:22:34.241Z,101732.97
2019-03-12T02:23:41.232Z,101734.61
2019-03-12T02:24:53.073Z,101727.86
2019-03-12T02:25:56.657Z,101726.60
2019-03-12T02:27:03.994Z,101730.39
2019-03-12T02:28:10.679Z,101723.69
2019-03-12T02:29:17.698Z,101719.09
2019-03-12T02:30:24.679Z,101726.27
2019-03-12T02:31:31.998Z,101724.23
2019-03-12T02:32:38.748Z,101719.14
2019-03-12T02:33:45.742Z,101725.88
2019-03-12T02:34:52.414Z,101717.87
2019-03-12T02:35:59.662Z,101720.02
2019-03-12T02:37:07.047Z,101715.39
2019-03-12T02:38:14.028Z,101713.23
2019-03-12T02:39:21.286Z,101716.61
2019-03-12T02:40:28.027Z,101707.33
2019-03-12T02:41:34.904Z,101709.44
2019-03-12T02:42:41.546Z,101700.12
2019-03-12T02:43:48.644Z,101711.09
2019-03-12T02:44:55.335Z,101702.66
2019-03-12T02:46:02.360Z,101704.26
2019-03-12T02:47:09.789Z,101702.66
2019-03-12T02:48:16.502Z,101703.42
2019-03-12T02:49:23.192Z,101708.39
2019-03-12T02:50:30.164Z,101695.33
2019-03-12T02:51:36.804Z,101701.31
2019-03-12T02:52:43.773Z,101699.20
2019-03-12T02:53:50.883Z,101690.77
2019-03-12T02:54:57.938Z,101696.25
2019-03-12T02:56:04.594Z,101699.16
2019-03-12T02:57:11.270Z,101692.88
2019-03-12T02:58:18.004Z,101693.30
2019-03-12T02:59:25.193Z,101690.77
2019-03-12T03:00:31.875Z,101685.67
2019-03-12T03:01:38.542Z,101683.56
2019-03-12T03:02:46.144Z,101680.23
2019-03-12T03:03:52.781Z,101680.28
2019-03-12T03:04:59.475Z,101677.75
2019-03-12T03:06:27.832Z,101674.84
2019-03-12T03:07:54.716Z,101678.25
2019-03-12T03:09:02.045Z,101674.95
2019-03-12T03:10:10.834Z,101670.73
2019-03-12T03:11:17.856Z,101667.79
2019-03-12T03:12:25.317Z,101666.52
2019-03-12T03:13:32.100Z,101660.20
2019-03-12T03:14:41.033Z,101659.40
2019-03-12T03:15:48.172Z,101657.21
2019-03-12T03:16:54.907Z,101650.00
2019-03-12T03:18:01.602Z,101649.08
2019-03-12T03:19:08.618Z,101652.88
2019-03-12T03:20:15.333Z,101649.93
2019-03-12T03:21:22.534Z,101639.81
2019-03-12T03:22:29.195Z,101638.59
2019-03-12T03:23:36.291Z,101639.05
2019-03-12T03:24:42.987Z,101638.16
2019-03-12T03:25:49.974Z,101639.85
2019-03-12T03:26:57.025Z,101643.68
2019-03-12T03:28:03.963Z,101645.80
2019-03-12T03:29:10.619Z,101642.42
2019-03-12T03:30:20.937Z,101647.47
2019-03-12T03:31:28.248Z,101644.53
2019-03-12T03:32:34.912Z,101650.46
2019-03-12T03:33:42.218Z,101652.16
2019-03-12T03:34:49.204Z,101648.81
2019-03-12T03:35:55.937Z,101644.64
2019-03-12T03:37:02.680Z,101651.77
2019-03-12T03:38:09.741Z,101652.19
2019-03-12T03:39:16.516Z,101648.32
2019-03-12T03:40:23.214Z,101652.58
2019-03-12T03:41:34.476Z,101646.17
2019-03-12T03:42:39.038Z,101643.22
2019-03-12T03:43:45.699Z,101648.66
2019-03-12T03:44:52.745Z,101647.86
2019-03-12T03:45:59.820Z,101645.37
2019-03-12T03:47:06.884Z,101641.19
2019-03-12T03:48:13.604Z,101641.61
2019-03-12T03:49:20.632Z,101637.82
2019-03-12T03:50:27.793Z,101631.95
2019-03-12T03:51:34.897Z,101628.58
2019-03-12T03:52:41.564Z,101624.79
2019-03-12T03:53:48.249Z,101630.31
2019-03-12T03:54:55.431Z,101623.22
2019-03-12T03:56:02.110Z,101616.47
2019-03-12T03:57:08.812Z,101617.28
2019-03-12T03:58:15.527Z,101619.46
2019-03-12T03:59:22.566Z,101610.22
2019-03-12T04:00:29.237Z,101603.86
2019-03-12T04:01:36.313Z,101608.53
2019-03-12T04:02:43.514Z,101605.55
2019-03-12T04:03:50.167Z,101597.58
2019-03-12T04:04:56.864Z,101605.93
2019-03-12T04:06:04.425Z,101602.94
2019-03-12T04:07:11.191Z,101602.48
2019-03-12T04:08:17.991Z,101600.80
2019-03-12T04:09:24.932Z,101596.62
2019-03-12T04:10:31.676Z,101591.14
2019-03-12T04:11:38.342Z,101585.63
2019-03-12T04:12:45.106Z,101587.69
2019-03-12T04:13:51.954Z,101586.89
2019-03-12T04:14:58.638Z,101589.00
2019-03-12T04:16:05.693Z,101585.63
2019-03-12T04:17:12.389Z,101578.38
2019-03-12T04:18:19.859Z,101584.74
2019-03-12T04:19:26.648Z,101580.52
2019-03-12T04:20:33.693Z,101580.52
2019-03-12T04:21:40.636Z,101581.75
2019-03-12T04:22:47.283Z,101580.52
2019-03-12T04:23:54.597Z,101580.07
2019-03-12T04:25:01.688Z,101581.33
2019-03-12T04:26:08.769Z,101581.33
2019-03-12T04:27:15.495Z,101580.48
2019-03-12T04:28:24.259Z,101582.56
2019-03-12T04:29:31.506Z,101572.41
2019-03-12T04:30:38.161Z,101573.32
2019-03-12T04:31:44.900Z,101564.86
2019-03-12T04:32:51.869Z,101563.13
2019-03-12T04:34:20.159Z,101562.33
2019-03-12T04:35:27.369Z,101563.62
2019-03-12T04:36:39.096Z,101563.62
2019-03-12T04:37:45.846Z,101563.73
2019-03-12T04:38:52.509Z,101559.94
2019-03-12T04:39:59.372Z,101556.19
2019-03-12T04:41:06.389Z,101549.48
2019-03-12T04:42:13.670Z,101543.19
2019-03-12T04:43:20.318Z,101532.30
2019-03-12T04:44:27.060Z,101534.05
2019-03-12T04:45:33.741Z,101535.77
2019-03-12T04:46:40.831Z,101537.03
2019-03-12T04:47:47.725Z,101534.96
2019-03-12T04:48:54.452Z,101532.05
2019-03-12T04:50:01.422Z,101530.39
2019-03-12T04:51:08.146Z,101532.11
2019-03-12T04:52:15.306Z,101530.39
2019-03-12T04:53:22.237Z,101533.77
2019-03-12T04:54:28.950Z,101535.06
2019-03-12T04:55:35.601Z,101532.53
2019-03-12T04:56:42.585Z,101525.39
2019-03-12T04:57:49.255Z,101526.20
2019-03-12T04:58:55.970Z,101526.20
2019-03-12T05:00:02.615Z,101524.45
2019-03-12T05:01:09.300Z,101521.95
2019-03-12T05:02:16.002Z,101518.65
2019-03-12T05:03:22.721Z,101517.84
2019-03-12T05:04:30.212Z,101517.67
2019-03-12T05:05:37.251Z,101518.31
2019-03-12T05:06:43.903Z,101511.95
2019-03-12T05:07:50.946Z,101509.81
2019-03-12T05:08:57.939Z,101507.73
2019-03-12T05:10:05.493Z,101503.98
2019-03-12T05:11:12.860Z,101506.54
2019-03-12T05:12:19.506Z,101499.80
2019-03-12T05:13:26.588Z,101496.81
2019-03-12T05:14:37.699Z,101499.80
2019-03-12T05:15:44.858Z,101497.69
2019-03-12T05:16:52.481Z,101494.37
2019-03-12T05:17:59.524Z,101488.09
2019-03-12T05:19:06.223Z,101486.47
2019-03-12T05:20:14.583Z,101486.44
2019-03-12T05:21:21.297Z,101483.55
2019-03-12T05:22:28.696Z,101481.44
2019-03-12T05:23:35.738Z,101475.56
2019-03-12T05:24:42.445Z,101476.02
2019-03-12T05:25:49.125Z,101472.23
2019-03-12T05:26:56.040Z,101474.33
2019-03-12T05:28:02.766Z,101468.83
2019-03-12T05:29:09.438Z,101462.98
2019-03-12T05:30:18.093Z,101462.95
2019-03-12T05:31:25.265Z,101465.90
2019-03-12T05:32:32.700Z,101464.70
2019-03-12T05:33:39.424Z,101464.28
2019-03-12T05:34:46.525Z,101454.19
2019-03-12T05:35:54.047Z,101448.38
2019-03-12T05:37:01.094Z,101447.98
2019-03-12T05:38:08.268Z,101445.39
2019-03-12T05:39:14.923Z,101444.97
2019-03-12T05:40:21.619Z,101441.59
2019-03-12T05:41:28.274Z,101436.05
2019-03-12T05:42:35.245Z,101427.68
2019-03-12T05:43:41.974Z,101422.65
2019-03-12T05:44:48.716Z,101421.41
2019-03-12T05:45:55.413Z,101421.41
2019-03-12T05:47:02.426Z,101429.06
2019-03-12T05:48:09.093Z,101427.73
2019-03-12T05:49:15.741Z,101425.59
2019-03-12T05:50:22.577Z,101426.92
2019-03-12T05:51:29.293Z,101418.48
2019-03-12T05:52:35.974Z,101426.95
2019-03-12T05:53:50.364Z,101423.16
2019-03-12T05:54:57.065Z,101425.27
2019-03-12T05:56:04.323Z,101432.86
2019-03-12T05:57:11.084Z,101430.00
2019-03-12T05:58:17.834Z,101426.62
2019-03-12T05:59:25.215Z,101425.33
2019-03-12T06:00:31.901Z,101425.75
2019-03-12T06:01:38.670Z,101425.33
2019-03-12T06:02:45.958Z,101419.45
2019-03-12T06:03:52.921Z,101416.58
2019-03-12T06:05:00.422Z,101418.27
2019-03-12T06:06:07.221Z,101417.37
2019-03-12T06:07:13.898Z,101414.84
2019-03-12T06:08:20.968Z,101411.49
2019-03-12T06:09:30.521Z,101408.56
2019-03-12T06:10:36.406Z,101409.83
2019-03-12T06:11:43.081Z,101405.59
2019-03-12T06:12:50.168Z,101404.34
2019-03-12T06:13:57.694Z,101404.38
2019-03-12T06:15:04.610Z,101397.27
2019-03-12T06:16:11.676Z,101402.38
2019-03-12T06:17:18.701Z,101389.72
2019-03-12T06:18:25.747Z,101391.41
2019-03-12T06:19:32.468Z,101387.67
2019-03-12T06:20:39.157Z,101399.06
2019-03-12T06:21:45.856Z,101393.13
2019-03-12T06:22:52.813Z,101395.68
2019-03-12T06:23:59.596Z,101394.02
2019-03-12T06:25:06.609Z,101389.83
2019-03-12T06:26:13.751Z,101385.64
2019-03-12T06:27:20.523Z,101387.72
2019-03-12T06:28:31.048Z,101382.70
2019-03-12T06:29:36.434Z,101388.64
2019-03-12T06:31:17.352Z,101384.42
2019-03-12T06:32:43.213Z,101387.41
2019-03-12T06:34:09.674Z,101373.11
2019-03-12T06:35:35.311Z,101376.95
2019-03-12T06:36:47.317Z,101375.34
2019-03-12T06:38:12.829Z,101368.19
2019-03-12T06:39:31.953Z,101373.75
2019-03-12T06:40:53.312Z,101368.34
2019-03-12T06:42:07.781Z,101365.83
2019-03-12T06:43:31.597Z,101361.17
2019-03-12T06:44:48.088Z,101365.84
2019-03-12T06:46:12.556Z,101362.96
2019-03-12T06:47:37.261Z,101351.19
2019-03-12T06:49:02.895Z,101346.59
2019-03-12T06:50:19.625Z,101341.52
2019-03-12T06:51:43.928Z,101341.13
2019-03-12T06:53:08.900Z,101337.40
2019-03-12T06:54:43.883Z,101332.36
2019-03-12T06:56:07.472Z,101329.42
2019-03-12T06:57:29.599Z,101335.73
2019-03-12T06:59:07.635Z,101326.91
2019-03-12T07:00:32.787Z,101337.44
2019-03-12T07:01:51.620Z,101346.78
2019-03-12T07:03:11.369Z,101351.87
2019-03-12T07:04:46.359Z,101348.48
2019-03-12T07:06:21.463Z,101344.66
2019-03-12T07:07:46.020Z,101341.73
2019-03-12T07:09:12.566Z,101334.59
2019-03-12T07:10:41.717Z,101331.22
2019-03-12T07:12:01.348Z,101332.09
2019-03-12T07:13:26.925Z,101322.42
2019-03-12T07:14:38.502Z,101321.59
2019-03-12T07:16:04.342Z,101322.92
2019-03-12T07:17:22.891Z,101324.16
2019-03-12T07:18:45.161Z,101318.71
2019-03-12T07:20:09.575Z,101312.00
2019-03-12T07:21:34.450Z,101312.89
2019-03-12T07:23:06.201Z,101317.53
2019-03-12T07:24:34.840Z,101320.09
2019-03-12T07:25:50.806Z,101319.72
2019-03-12T07:27:22.387Z,101314.67
2019-03-12T07:29:00.992Z,101311.34
2019-03-12T07:30:40.543Z,101314.33
2019-03-12T07:32:05.833Z,101312.23
2019-03-12T07:33:27.137Z,101308.08
2019-03-12T07:34:48.156Z,101307.27
2019-03-12T07:36:10.204Z,101304.31
2019-03-12T07:37:25.573Z,101307.31
2019-03-12T07:38:47.002Z,101306.92
2019-03-12T07:40:11.863Z,101303.16
2019-03-12T07:41:43.579Z,101305.30
2019-03-12T07:43:09.423Z,101305.73
2019-03-12T07:44:31.737Z,101307.44
2019-03-12T07:46:00.710Z,101297.33
2019-03-12T07:47:19.105Z,101293.12
2019-03-12T07:48:35.951Z,101299.02
2019-03-12T07:50:00.403Z,101290.61
2019-03-12T07:51:31.800Z,101294.41
2019-03-12T07:52:59.121Z,101280.86
2019-03-12T07:54:25.192Z,101286.34
2019-03-12T07:55:50.059Z,101286.33
2019-03-12T07:57:18.854Z,101284.66
2019-03-12T07:58:57.145Z,101276.58
2019-03-12T08:00:26.413Z,101269.36
2019-03-12T08:01:58.102Z,101261.73
2019-03-12T08:03:23.698Z,101256.66
2019-03-12T08:04:55.199Z,101251.17
2019-03-12T08:06:23.732Z,101237.20
2019-03-12T08:07:52.771Z,101242.72
2019-03-12T08:09:12.523Z,101230.89
2019-03-12T08:10:41.125Z,101222.42
2019-03-12T08:12:03.329Z,101216.13
2019-03-12T08:13:37.695Z,101217.39
2019-03-12T08:15:22.289Z,101213.16
2019-03-12T08:16:54.825Z,101207.23
2019-03-12T08:18:13.842Z,101207.28
2019-03-12T08:19:36.700Z,101192.92
2019-03-12T08:21:02.148Z,101189.11
2019-03-12T08:22:25.428Z,101182.78
2019-03-12T08:24:00.604Z,101167.15
2019-03-12T08:25:25.792Z,101174.36
2019-03-12T08:26:44.583Z,101173.52
2019-03-12T08:28:10.710Z,101151.50
2019-03-12T08:29:39.082Z,101156.61
2019-03-12T08:31:08.168Z,101153.62
2019-03-12T08:32:43.090Z,101146.45
2019-03-12T08:34:14.915Z,101133.77
2019-03-12T08:35:32.996Z,101128.25
2019-03-12T08:36:54.229Z,101124.05
2019-03-12T08:38:26.083Z,101121.51
2019-03-12T08:39:57.726Z,101101.64
2019-03-12T08:41:10.775Z,101105.45
2019-03-12T08:42:35.589Z,101086.83
2019-03-12T08:44:00.117Z,101086.02
2019-03-12T08:45:29.358Z,101077.53
2019-03-12T08:46:55.238Z,101060.61
2019-03-12T08:48:20.763Z,101057.64
2019-03-12T08:50:01.775Z,101052.16
2019-03-12T08:51:31.366Z,101053.02
2019-03-12T08:52:46.880Z,101048.34
2019-03-12T08:54:21.326Z,101055.13
2019-03-12T08:55:44.814Z,101047.94
2019-03-12T08:57:10.467Z,101040.77
2019-03-12T08:58:34.882Z,101047.11
2019-03-12T08:59:57.527Z,101036.52
2019-03-12T09:01:25.905Z,101037.77
2019-03-12T09:03:03.533Z,101045.83
2019-03-12T09:04:16.856Z,101031.42
2019-03-12T09:05:51.735Z,101041.15
2019-03-12T09:07:20.889Z,101024.59
2019-03-12T09:08:46.132Z,101015.27
2019-03-12T09:10:02.193Z,101019.08
2019-03-12T09:11:26.606Z,101014.83
2019-03-12T09:12:41.707Z,101016.94
2019-03-12T09:14:16.161Z,101011.86
2019-03-12T09:15:47.780Z,101009.31
2019-03-12T09:17:19.516Z,101003.35
2019-03-12T09:18:45.080Z,100985.55
2019-03-12T09:20:07.206Z,100990.63
2019-03-12T09:21:22.722Z,100992.70
2019-03-12T09:22:48.805Z,100996.08
2019-03-12T09:24:14.732Z,100972.34
2019-03-12T09:25:43.159Z,100975.77
2019-03-12T09:27:20.834Z,100959.22
2019-03-12T09:28:46.392Z,100959.63
2019-03-12T09:30:05.628Z,100966.38
2019-03-12T09:31:34.486Z,100959.18
2019-03-12T09:33:01.044Z,100956.16
2019-03-12T09:34:33.837Z,100952.33
2019-03-12T09:35:58.295Z,100938.33
2019-03-12T09:37:25.889Z,100950.18
2019-03-12T09:38:43.624Z,100933.62
2019-03-12T09:40:03.010Z,100936.17
2019-03-12T09:41:25.032Z,100926.83
2019-03-12T09:43:08.854Z,100937.00
2019-03-12T09:44:33.520Z,100907.27
2019-03-12T09:45:57.749Z,100905.56
2019-03-12T09:47:26.934Z,100925.92
2019-03-12T09:48:59.140Z,100903.83
2019-03-12T09:50:17.158Z,100905.94
2019-03-12T09:51:38.956Z,100894.03
2019-03-12T09:53:05.275Z,100880.41
2019-03-12T09:54:27.394Z,100887.16
2019-03-12T09:56:11.152Z,100879.11
2019-03-12T09:57:49.546Z,100883.31
2019-03-12T09:59:03.341Z,100879.44
2019-03-12T10:00:26.233Z,100868.41
2019-03-12T10:01:44.223Z,100863.67
2019-03-12T10:03:12.532Z,100872.97
2019-03-12T10:04:41.162Z,100868.25
2019-03-12T10:06:13.813Z,100864.04
2019-03-12T10:07:34.035Z,100857.23
2019-03-12T10:09:03.222Z,100858.05
2019-03-12T10:10:32.300Z,100849.95
2019-03-12T10:12:10.639Z,100844.73
2019-03-12T10:13:45.224Z,100826.92
2019-03-12T10:15:19.830Z,100830.70
2019-03-12T10:16:44.793Z,100827.34
2019-03-12T10:18:11.244Z,100823.87
2019-03-12T10:19:35.870Z,100822.19
2019-03-12T10:20:59.238Z,100813.25
2019-03-12T10:22:15.168Z,100805.59
2019-03-12T10:23:46.825Z,100800.87
2019-03-12T10:25:12.424Z,100810.23
2019-03-12T10:26:37.180Z,100812.78
2019-03-12T10:28:01.806Z,100816.59
2019-03-12T10:29:25.925Z,100795.77
2019-03-12T10:31:04.312Z,100802.57
2019-03-12T10:32:29.122Z,100802.56
2019-03-12T10:34:07.414Z,100799.91
2019-03-12T10:35:27.911Z,100796.90
2019-03-12T10:36:53.532Z,100799.00
2019-03-12T10:39:17.653Z,100803.71
2019-03-12T10:40:38.529Z,100800.30
2019-03-12T10:42:04.505Z,100785.45
2019-03-12T10:43:22.280Z,100779.89
2019-03-12T10:44:51.163Z,100781.98
2019-03-12T10:46:16.777Z,100773.81
2019-03-12T10:47:25.096Z,100767.88
2019-03-12T10:48:33.335Z,100765.61
2019-03-12T10:49:40.835Z,100755.34
2019-03-12T10:50:49.598Z,100756.55
2019-03-12T10:51:56.616Z,100751.46
2019-03-12T10:53:03.288Z,100750.16
2019-03-12T10:54:09.940Z,100748.89
2019-03-12T10:55:16.627Z,100736.53
2019-03-12T10:56:23.863Z,100750.92
2019-03-12T10:57:31.321Z,100725.86
2019-03-12T10:58:38.339Z,100736.89
2019-03-12T10:59:46.392Z,100736.84
2019-03-12T11:00:53.104Z,100731.23
2019-03-12T11:02:00.223Z,100728.19
2019-03-12T11:03:07.012Z,100719.70
2019-03-12T11:04:14.788Z,100723.45
2019-03-12T11:05:22.563Z,100706.03
2019-03-12T11:06:29.830Z,100708.28
2019-03-12T11:07:37.008Z,100710.44
2019-03-12T11:08:43.796Z,100700.13
2019-03-12T11:09:50.787Z,100697.56
2019-03-12T11:11:00.509Z,100692.37
2019-03-12T11:12:07.483Z,100696.03
2019-03-12T11:13:14.947Z,100689.15
2019-03-12T11:14:22.538Z,100704.80
2019-03-12T11:15:29.297Z,100688.30
2019-03-12T11:16:36.301Z,100685.31
2019-03-12T11:17:49.471Z,100701.78
2019-03-12T11:18:51.715Z,100684.75
2019-03-12T11:19:58.841Z,100688.83
2019-03-12T11:21:05.843Z,100673.08
2019-03-12T11:22:14.254Z,100674.41
2019-03-12T11:23:22.291Z,100682.75
2019-03-12T11:24:29.484Z,100677.54
2019-03-12T11:25:36.135Z,100654.63
2019-03-12T11:26:42.806Z,100663.09
2019-03-12T11:27:50.483Z,100665.65
2019-03-12T11:28:57.261Z,100659.73
2019-03-12T11:30:04.701Z,100661.91
2019-03-12T11:31:11.852Z,100661.17
2019-03-12T11:32:18.836Z,100660.73
2019-03-12T11:33:26.149Z,100648.45
2019-03-12T11:34:33.478Z,100639.45
2019-03-12T11:35:40.179Z,100640.55
2019-03-12T11:36:46.907Z,100635.72
2019-03-12T11:37:54.031Z,100629.70
2019-03-12T11:39:00.864Z,100617.86
2019-03-12T11:40:11.389Z,100621.72
2019-03-12T11:41:18.055Z,100605.16
2019-03-12T11:42:25.074Z,100635.77
2019-03-12T11:43:31.784Z,100619.50
2019-03-12T11:44:38.468Z,100619.45
2019-03-12T11:45:45.152Z,100613.12
2019-03-12T11:46:51.889Z,100620.08
2019-03-12T11:47:59.289Z,100590.76
2019-03-12T11:49:06.114Z,100604.78
2019-03-12T11:50:18.829Z,100601.34
2019-03-12T11:51:25.953Z,100610.25
2019-03-12T11:52:32.689Z,100594.77
2019-03-12T11:53:39.465Z,100607.91
2019-03-12T11:54:46.436Z,100589.56
2019-03-12T11:55:53.611Z,100583.23
2019-03-12T11:57:00.280Z,100593.39
2019-03-12T11:58:07.692Z,100588.15
2019-03-12T11:59:14.484Z,100600.52
2019-03-12T12:00:38.121Z,100587.30
2019-03-12T12:01:46.016Z,100582.57
2019-03-12T12:02:59.975Z,100588.91
2019-03-12T12:04:02.046Z,100581.50
2019-03-12T12:05:09.312Z,100580.82
2019-03-12T12:06:16.454Z,100566.83
2019-03-12T12:07:23.265Z,100572.91
2019-03-12T12:08:30.865Z,100564.75
2019-03-12T12:09:38.073Z,100571.94
2019-03-12T12:10:44.741Z,100577.77
2019-03-12T12:11:51.399Z,100570.08
2019-03-12T12:12:58.671Z,100560.36
2019-03-12T12:14:05.427Z,100566.16
2019-03-12T12:15:13.399Z,100556.42
2019-03-12T12:16:20.350Z,100547.45
2019-03-12T12:17:27.536Z,100538.53
2019-03-12T12:18:34.266Z,100541.09
2019-03-12T12:19:40.894Z,100538.09
2019-03-12T12:20:47.647Z,100526.56
2019-03-12T12:21:54.327Z,100542.84
2019-03-12T12:23:01.306Z,100532.95
2019-03-12T12:24:07.991Z,100520.67
2019-03-12T12:25:15.695Z,100538.92
2019-03-12T12:26:22.746Z,100529.50
2019-03-12T12:27:29.453Z,100524.00
2019-03-12T12:28:36.141Z,100530.42
2019-03-12T12:29:43.184Z,100512.03
2019-03-12T12:30:50.397Z,100515.51
2019-03-12T12:31:57.429Z,100510.67
2019-03-12T12:33:04.403Z,100508.77
2019-03-12T12:34:11.485Z,100509.69
2019-03-12T12:35:18.142Z,100506.16
2019-03-12T12:36:24.844Z,100497.77
2019-03-12T12:37:31.740Z,100494.00
2019-03-12T12:38:38.966Z,100492.66
2019-03-12T12:39:45.892Z,100493.49
2019-03-12T12:40:53.062Z,100491.86
2019-03-12T12:42:00.051Z,100489.22
2019-03-12T12:43:06.690Z,100481.42
2019-03-12T12:44:13.706Z,100481.84
2019-03-12T12:45:21.795Z,100478.87
2019-03-12T12:46:28.476Z,100466.09
2019-03-12T12:47:35.124Z,100466.50
2019-03-12T12:48:41.795Z,100449.41
2019-03-12T12:49:48.899Z,100459.95
2019-03-12T12:51:03.218Z,100449.28
2019-03-12T12:52:04.003Z,100449.28
2019-03-12T12:53:10.692Z,100445.39
2019-03-12T12:54:17.382Z,100443.95
2019-03-12T12:55:24.320Z,100446.86
2019-03-12T12:56:31.532Z,100444.14
2019-03-12T12:57:38.613Z,100446.86
2019-03-12T12:58:45.655Z,100437.05
2019-03-12T12:59:52.704Z,100438.23
2019-03-12T13:00:59.378Z,100418.12
2019-03-12T13:02:06.422Z,100418.60
2019-03-12T13:03:13.090Z,100417.30
2019-03-12T13:04:19.879Z,100402.02
2019-03-12T13:05:26.729Z,100400.84
2019-03-12T13:06:33.629Z,100396.20
2019-03-12T13:07:40.501Z,100388.95
2019-03-12T13:08:47.132Z,100376.93
2019-03-12T13:09:54.394Z,100393.52
2019-03-12T13:11:01.365Z,100383.33
2019-03-12T13:12:08.021Z,100382.77
2019-03-12T13:13:15.169Z,100379.08
2019-03-12T13:14:22.295Z,100379.77
2019-03-12T13:15:29.056Z,100382.22
2019-03-12T13:16:35.704Z,100382.46
2019-03-12T13:17:42.711Z,100377.66
2019-03-12T13:18:49.385Z,100370.66
2019-03-12T13:19:56.056Z,100364.68
2019-03-12T13:21:02.700Z,100361.08
2019-03-12T13:22:09.447Z,100356.70
2019-03-12T13:23:16.136Z,100367.47
2019-03-12T13:24:22.865Z,100351.81
2019-03-12T13:25:30.014Z,100348.28
2019-03-12T13:26:36.801Z,100346.84
2019-03-12T13:27:43.997Z,100346.66
2019-03-12T13:28:50.637Z,100336.39
2019-03-12T13:29:57.496Z,100317.41
2019-03-12T13:31:05.757Z,100332.84
2019-03-12T13:32:13.751Z,100324.48
2019-03-12T13:33:20.820Z,100316.70
2019-03-12T13:34:27.550Z,100304.27
2019-03-12T13:35:34.249Z,100309.54
2019-03-12T13:36:40.962Z,100299.05
2019-03-12T13:37:48.643Z,100295.73
2019-03-12T13:38:55.283Z,100302.13
2019-03-12T13:40:02.050Z,100297.69
2019-03-12T13:41:08.927Z,100296.44
2019-03-12T13:42:15.730Z,100289.25
2019-03-12T13:43:23.779Z,100293.37
2019-03-12T13:44:30.509Z,100291.64